Terminal Aerodrome Forecast
Issued by NWS Northern Indiana

Home | Current Version | Previous Version | Text Only | Print | Product List | Glossary Off
Versions: 1 2 3 4 5 6 7 8 9 10 11 12 13 14 15

000
FTUS43 KIWX 141730
TAFFWA
TAF
KFWA 141730Z 1418/1518 16009KT P6SM BKN100
     FM150300 19013KT P6SM BKN070 WS020/21040KT
     FM151200 21016G26KT 5SM SHRA VCTS BKN025CB
     FM151600 26020G30KT P6SM OVC025=

USA.gov is the U.S. government's official web portal to all federal, state and local government web resources and services.